createdAt,value
2022-10-15T00:01:14.289Z,28.00
2022-10-15T00:04:32.171Z,29.53
2022-10-15T00:07:30.250Z,33.43
2022-10-15T00:10:35.943Z,29.00
2022-10-15T00:13:56.649Z,35.03
2022-10-15T00:16:44.588Z,34.23
2022-10-15T00:19:43.668Z,37.60
2022-10-15T00:22:38.094Z,32.40
2022-10-15T00:25:25.979Z,33.60
2022-10-15T00:28:24.108Z,38.53
2022-10-15T00:31:20.501Z,36.47
2022-10-15T00:34:11.976Z,35.60
2022-10-15T00:37:11.299Z,37.57
2022-10-15T00:40:12.465Z,36.17
2022-10-15T00:43:21.084Z,36.17
2022-10-15T00:46:32.867Z,39.40
2022-10-15T00:49:48.740Z,37.03
2022-10-15T00:52:51.143Z,41.20
2022-10-15T00:59:06.209Z,40.20
2022-10-15T01:02:05.620Z,45.27
2022-10-15T01:11:53.124Z,40.47
2022-10-15T01:15:06.122Z,43.33
2022-10-15T01:30:15.314Z,40.93
2022-10-15T01:33:48.142Z,40.70
2022-10-15T01:36:49.543Z,39.83
2022-10-15T01:40:11.072Z,44.00
2022-10-15T01:43:00.477Z,41.97
2022-10-15T01:46:12.166Z,36.20
2022-10-15T01:49:11.986Z,44.30
2022-10-15T01:52:15.778Z,45.83
2022-10-15T01:55:12.234Z,41.00
2022-10-15T01:58:28.536Z,40.03
2022-10-15T02:01:27.173Z,44.70
2022-10-15T02:04:37.494Z,37.63
2022-10-15T02:07:46.176Z,41.57
2022-10-15T02:11:14.817Z,43.50
2022-10-15T02:14:12.391Z,44.63
2022-10-15T02:17:14.516Z,37.30
2022-10-15T02:20:27.674Z,44.23
2022-10-15T02:23:53.897Z,45.10
2022-10-15T02:26:43.378Z,47.13
2022-10-15T02:29:37.755Z,48.37
2022-10-15T02:32:32.099Z,44.10
2022-10-15T02:35:25.211Z,43.40
2022-10-15T02:38:30.239Z,48.25
2022-10-15T02:41:20.520Z,52.23
2022-10-15T02:44:12.066Z,45.27
2022-10-15T02:47:09.004Z,45.13
2022-10-15T02:50:01.919Z,46.77
2022-10-15T02:52:53.226Z,44.47
2022-10-15T02:55:44.758Z,48.47
2022-10-15T02:58:38.331Z,51.30
2022-10-15T03:01:27.712Z,47.63
2022-10-15T03:04:38.714Z,49.57
2022-10-15T03:07:32.958Z,45.40
2022-10-15T03:10:24.838Z,52.07
2022-10-15T03:13:37.885Z,49.53
2022-10-15T03:16:28.938Z,49.90
2022-10-15T03:19:22.290Z,47.03
2022-10-15T03:22:09.982Z,49.27
2022-10-15T03:24:58.000Z,52.03
2022-10-15T03:27:46.996Z,51.67
2022-10-15T03:30:38.577Z,56.27
2022-10-15T03:33:32.474Z,51.77
2022-10-15T03:36:25.898Z,52.37
2022-10-15T03:39:19.139Z,49.97
2022-10-15T03:42:10.149Z,52.17
2022-10-15T03:45:00.259Z,53.07
2022-10-15T03:47:48.033Z,49.03
2022-10-15T03:50:38.037Z,45.00
2022-10-15T03:53:50.272Z,51.33
2022-10-15T03:56:41.445Z,50.45
2022-10-15T03:59:32.342Z,61.73
2022-10-15T04:02:35.413Z,48.77
2022-10-15T04:05:31.829Z,51.60
2022-10-15T04:08:26.626Z,49.85
2022-10-15T04:11:23.781Z,53.40
2022-10-15T04:14:48.855Z,52.33
2022-10-15T04:17:37.016Z,52.03
2022-10-15T04:20:28.497Z,48.07
2022-10-15T04:23:25.323Z,52.00
2022-10-15T04:26:12.956Z,51.80
2022-10-15T04:29:19.727Z,50.30
2022-10-15T04:32:25.164Z,57.60
2022-10-15T04:35:13.919Z,55.80
2022-10-15T04:38:09.252Z,54.13
2022-10-15T04:41:16.959Z,51.37
2022-10-15T04:44:23.471Z,54.23
2022-10-15T04:47:31.536Z,52.23
2022-10-15T04:50:26.023Z,50.93
2022-10-15T04:56:53.570Z,53.43
2022-10-15T04:59:46.308Z,50.47
2022-10-15T05:02:48.596Z,53.80
2022-10-15T05:05:44.419Z,47.57
2022-10-15T05:08:51.850Z,52.73
2022-10-15T05:11:58.506Z,48.30
2022-10-15T05:15:17.701Z,50.17
2022-10-15T05:18:33.291Z,47.63
2022-10-15T05:21:32.643Z,50.57
2022-10-15T05:24:44.276Z,53.67
2022-10-15T05:27:34.666Z,47.40
2022-10-15T05:33:28.267Z,53.50
2022-10-15T05:39:41.155Z,54.72
2022-10-15T05:42:34.668Z,46.50
2022-10-15T05:45:26.411Z,48.13
2022-10-15T05:48:30.821Z,52.97
2022-10-15T05:51:30.434Z,52.73
2022-10-15T05:54:39.624Z,55.05
2022-10-15T05:57:28.641Z,58.37
2022-10-15T06:00:29.510Z,62.17
2022-10-15T06:03:56.647Z,58.73
2022-10-15T06:06:57.506Z,55.67
2022-10-15T06:10:23.722Z,56.40
2022-10-15T06:16:59.194Z,60.03
2022-10-15T06:19:54.414Z,62.90
2022-10-15T06:23:19.194Z,58.10
2022-10-15T06:26:26.841Z,64.80
2022-10-15T06:29:39.699Z,60.93
2022-10-15T06:32:49.694Z,63.20
2022-10-15T06:35:42.397Z,72.13
2022-10-15T06:39:01.385Z,67.00
2022-10-15T06:42:09.571Z,69.17
2022-10-15T06:48:35.550Z,76.17
2022-10-15T06:55:02.157Z,70.67
2022-10-15T06:57:50.641Z,74.80
2022-10-15T07:00:37.949Z,80.13
2022-10-15T07:03:25.222Z,72.17
2022-10-15T07:06:12.519Z,57.53
2022-10-15T07:09:02.453Z,70.80
2022-10-15T07:11:49.758Z,68.20
2022-10-15T07:14:40.092Z,54.47
2022-10-15T07:17:31.577Z,55.30
2022-10-15T07:20:24.507Z,55.33
2022-10-15T07:23:11.936Z,59.33
2022-10-15T07:26:00.771Z,57.90
2022-10-15T07:28:48.151Z,51.60
2022-10-15T07:31:36.005Z,54.33
2022-10-15T07:34:23.871Z,50.40
2022-10-15T07:37:11.173Z,50.93
2022-10-15T07:39:58.582Z,45.33
2022-10-15T07:42:52.249Z,46.47
2022-10-15T07:45:39.862Z,47.17
2022-10-15T07:48:27.661Z,52.80
2022-10-15T07:51:15.178Z,48.43
2022-10-15T07:54:02.755Z,58.93
2022-10-15T07:56:49.956Z,54.67
2022-10-15T07:59:37.187Z,57.60
2022-10-15T08:02:25.486Z,57.23
2022-10-15T08:05:13.051Z,54.00
2022-10-15T08:08:00.647Z,67.20
2022-10-15T08:10:48.469Z,68.17
2022-10-15T08:13:36.591Z,69.00
2022-10-15T08:16:24.405Z,65.10
2022-10-15T08:19:11.643Z,70.07
2022-10-15T08:35:00.827Z,65.47
2022-10-15T08:37:48.265Z,61.93
2022-10-15T08:43:50.697Z,60.57
2022-10-15T08:46:43.920Z,57.40
2022-10-15T08:49:48.279Z,59.60
2022-10-15T08:52:51.573Z,52.67
2022-10-15T08:55:42.985Z,46.67
2022-10-15T09:05:19.591Z,37.30
2022-10-15T09:20:30.027Z,23.47
2022-10-15T09:23:23.548Z,28.53
2022-10-15T09:26:30.647Z,27.70
2022-10-15T09:29:39.098Z,25.37
2022-10-15T09:32:36.525Z,26.27
2022-10-15T09:39:05.746Z,25.50
2022-10-15T09:45:31.640Z,19.90
2022-10-15T09:48:20.847Z,23.80
2022-10-15T09:51:16.737Z,24.43
2022-10-15T09:57:10.028Z,24.10
2022-10-15T10:00:05.937Z,23.13
2022-10-15T10:15:35.197Z,27.70
2022-10-15T11:01:56.957Z,20.43
2022-10-15T11:04:44.617Z,18.17
2022-10-15T11:07:37.978Z,18.07
2022-10-15T11:19:26.608Z,14.63
2022-10-15T11:22:46.704Z,12.63
2022-10-15T11:35:52.421Z,10.37
2022-10-15T11:38:58.368Z,9.80
2022-10-15T11:42:07.130Z,10.20
2022-10-15T11:45:00.879Z,9.90
2022-10-15T11:48:02.185Z,9.13
2022-10-15T11:51:23.647Z,8.43
2022-10-15T11:54:42.532Z,7.90
2022-10-15T11:57:34.002Z,7.47
2022-10-15T12:06:34.442Z,7.37
2022-10-15T13:03:34.339Z,7.53
2022-10-15T13:06:49.079Z,10.47
2022-10-15T13:15:54.615Z,6.97
2022-10-15T13:19:06.491Z,6.97
2022-10-15T13:26:57.078Z,5.07
2022-10-15T13:48:23.196Z,2.23
2022-10-15T15:31:18.847Z,5.03
2022-10-15T16:26:38.670Z,6.97
2022-10-15T16:29:26.184Z,4.67
2022-10-15T16:32:13.613Z,3.23
2022-10-15T16:35:00.800Z,2.23
2022-10-15T16:37:48.242Z,4.27
2022-10-15T16:40:35.453Z,3.40
2022-10-15T16:49:49.911Z,8.53
2022-10-15T16:52:37.043Z,3.90
2022-10-15T16:55:24.612Z,6.27
2022-10-15T16:58:11.740Z,4.00
2022-10-15T17:01:01.006Z,5.23
2022-10-15T17:06:50.476Z,7.77
2022-10-15T17:09:37.656Z,4.70
2022-10-15T17:12:25.013Z,6.47
2022-10-15T17:15:12.685Z,4.87
2022-10-15T17:17:59.943Z,2.50
2022-10-15T17:20:48.329Z,8.23
2022-10-15T17:23:36.152Z,5.80
2022-10-15T17:26:25.767Z,4.73
2022-10-15T17:29:16.486Z,6.87
2022-10-15T17:32:04.033Z,10.50
2022-10-15T17:34:51.118Z,5.43
2022-10-15T17:38:09.948Z,7.47
2022-10-15T17:40:58.564Z,9.03
2022-10-15T17:43:46.771Z,6.13
2022-10-15T17:46:34.350Z,10.23
2022-10-15T17:49:21.814Z,8.93
2022-10-15T17:52:10.104Z,12.23
2022-10-15T17:54:57.544Z,10.80
2022-10-15T17:57:44.970Z,6.87
2022-10-15T18:00:32.430Z,6.93
2022-10-15T18:03:20.489Z,9.10
2022-10-15T18:06:09.946Z,8.30
2022-10-15T18:08:57.666Z,9.23
2022-10-15T18:11:46.477Z,6.63
2022-10-15T18:14:34.160Z,8.20
2022-10-15T18:17:21.584Z,8.30
2022-10-15T18:20:09.315Z,8.27
2022-10-15T18:22:56.806Z,10.93
2022-10-15T18:25:44.448Z,10.57
2022-10-15T18:28:32.328Z,8.63
2022-10-15T18:31:20.563Z,9.70
2022-10-15T18:34:08.115Z,7.47
2022-10-15T18:36:55.218Z,6.53
2022-10-15T18:39:42.687Z,9.17
2022-10-15T18:42:30.181Z,5.87
2022-10-15T18:45:17.489Z,6.63
2022-10-15T18:48:05.070Z,11.23
2022-10-15T18:50:54.804Z,9.27
2022-10-15T18:53:42.033Z,10.53
2022-10-15T18:56:30.042Z,10.30
2022-10-15T18:59:17.177Z,8.23
2022-10-15T19:02:04.678Z,9.80
2022-10-15T19:04:52.312Z,10.03
2022-10-15T19:07:39.884Z,5.93
2022-10-15T19:10:27.531Z,7.93
2022-10-15T19:19:50.192Z,11.37
2022-10-15T19:22:39.143Z,6.53
2022-10-15T19:25:26.737Z,8.00
2022-10-15T19:28:13.973Z,10.53
2022-10-15T19:31:04.450Z,12.87
2022-10-15T19:33:51.975Z,6.10
2022-10-15T19:36:46.587Z,7.17
2022-10-15T19:39:35.619Z,13.27
2022-10-15T19:42:23.162Z,13.93
2022-10-15T19:45:11.132Z,7.67
2022-10-15T19:48:01.552Z,10.73
2022-10-15T19:50:49.805Z,11.63
2022-10-15T19:53:37.314Z,9.03
2022-10-15T19:56:25.520Z,9.40
2022-10-15T19:59:13.615Z,11.83
2022-10-15T20:02:01.032Z,7.57
2022-10-15T20:04:48.221Z,8.37
2022-10-15T20:07:35.303Z,6.20
2022-10-15T20:10:26.026Z,8.07
2022-10-15T20:13:15.422Z,8.87
2022-10-15T20:16:06.770Z,7.70
2022-10-15T20:18:56.160Z,9.13
2022-10-15T20:21:43.323Z,6.00
2022-10-15T20:24:30.840Z,5.87
2022-10-15T20:27:18.284Z,8.90
2022-10-15T20:30:05.795Z,7.70
2022-10-15T20:32:53.269Z,9.90
2022-10-15T20:35:40.492Z,11.37
2022-10-15T20:38:27.941Z,6.33
2022-10-15T20:41:17.497Z,5.40
2022-10-15T20:44:05.089Z,11.10
2022-10-15T20:47:00.043Z,9.83
2022-10-15T20:49:50.926Z,6.30
2022-10-15T20:52:39.777Z,9.47
2022-10-15T20:55:27.745Z,9.03
2022-10-15T21:01:07.953Z,7.67
2022-10-15T21:03:55.437Z,7.63
2022-10-15T21:06:42.918Z,6.67
2022-10-15T21:09:30.385Z,6.17
2022-10-15T21:12:18.543Z,6.03
2022-10-15T21:15:06.607Z,6.70
2022-10-15T21:17:53.798Z,6.47
2022-10-15T21:20:41.269Z,5.10
2022-10-15T21:23:30.081Z,5.53
2022-10-15T21:26:19.045Z,5.63
2022-10-15T21:29:11.158Z,3.10
2022-10-15T21:31:58.575Z,2.77
2022-10-15T21:34:46.094Z,8.37
2022-10-15T21:37:37.615Z,7.27
2022-10-15T21:40:25.130Z,5.23
2022-10-15T21:43:12.619Z,5.07
2022-10-15T21:46:04.804Z,7.60
2022-10-15T21:48:53.246Z,6.70
2022-10-15T21:51:41.270Z,5.80
2022-10-15T21:54:29.490Z,4.67
2022-10-15T21:57:16.622Z,9.90
2022-10-15T22:00:07.813Z,4.70
2022-10-15T22:02:55.252Z,7.03
2022-10-15T22:05:43.598Z,4.50
2022-10-15T22:08:31.931Z,10.77
2022-10-15T22:11:30.879Z,4.93
2022-10-15T22:14:18.296Z,7.67
2022-10-15T22:17:05.835Z,8.97
2022-10-15T22:19:53.254Z,10.47
2022-10-15T22:22:40.351Z,9.40
2022-10-15T22:25:27.820Z,6.67
2022-10-15T22:28:15.200Z,6.53
2022-10-15T22:31:06.868Z,4.37
2022-10-15T22:33:54.852Z,3.67
2022-10-15T22:36:43.429Z,5.03
2022-10-15T22:39:30.902Z,3.13
2022-10-15T22:42:17.969Z,5.47
2022-10-15T22:45:06.214Z,4.77
2022-10-15T22:47:53.744Z,5.50
2022-10-15T22:50:41.349Z,3.07
2022-10-15T22:53:29.210Z,5.70
2022-10-15T22:56:18.699Z,6.00
2022-10-15T22:59:06.524Z,3.13
2022-10-15T23:01:53.722Z,3.73
2022-10-15T23:04:40.828Z,1.80
2022-10-15T23:07:27.922Z,3.97
2022-10-15T23:10:15.489Z,4.47
2022-10-15T23:13:03.010Z,1.87
2022-10-15T23:15:50.638Z,3.93
2022-10-15T23:18:38.257Z,5.80
2022-10-15T23:21:25.855Z,1.93
2022-10-15T23:24:14.484Z,6.10
2022-10-15T23:27:01.964Z,6.90
2022-10-15T23:29:56.881Z,4.73
2022-10-15T23:35:42.392Z,5.97
2022-10-15T23:38:29.928Z,3.97
2022-10-15T23:41:18.751Z,6.13
2022-10-15T23:44:06.104Z,4.80
2022-10-15T23:46:54.324Z,4.07
2022-10-15T23:49:41.801Z,3.50
2022-10-15T23:52:29.227Z,2.23
2022-10-15T23:55:16.754Z,7.43
2022-10-15T23:58:04.503Z,6.03
